createdAt,value
2018-02-14T01:27:24.377Z,12.47
2018-02-14T01:30:00.920Z,11.67
2018-02-14T01:32:37.353Z,12.00
2018-02-14T01:35:16.003Z,12.93
2018-02-14T01:40:52.164Z,11.40
2018-02-14T01:43:23.229Z,11.93
2018-02-14T01:45:53.245Z,12.40
2018-02-14T01:48:23.835Z,12.83
2018-02-14T01:50:53.734Z,11.60
2018-02-14T01:53:24.296Z,11.63
2018-02-14T01:55:54.914Z,11.00
2018-02-14T01:58:24.774Z,12.13
2018-02-14T02:00:54.754Z,13.33
2018-02-14T02:03:25.510Z,12.00
2018-02-14T06:45:38.041Z,13.57
2018-02-14T06:48:07.935Z,14.93
2018-02-14T06:50:37.825Z,15.97
2018-02-14T06:53:09.398Z,15.90
2018-02-14T06:55:41.333Z,15.77
2018-02-14T06:58:13.391Z,14.87
2018-02-14T07:00:46.360Z,12.33
2018-02-14T07:03:16.826Z,14.03
2018-02-14T07:05:51.307Z,11.83
2018-02-14T07:08:24.671Z,13.40
2018-02-14T07:10:54.610Z,12.90
2018-02-14T07:13:25.454Z,12.17
2018-02-14T07:16:01.731Z,12.67
2018-02-14T07:18:36.246Z,12.63
2018-02-14T07:21:30.414Z,11.17
2018-02-14T07:42:40.836Z,12.27
2018-02-14T07:53:58.519Z,12.60
2018-02-14T08:15:29.335Z,14.43
2018-02-14T08:30:37.776Z,14.70
2018-02-14T08:33:08.553Z,13.80
2018-02-14T10:29:49.884Z,10.70
2018-02-14T10:58:49.425Z,10.97
2018-02-14T11:01:26.131Z,11.33
2018-02-14T11:17:51.783Z,12.60
2018-02-14T11:20:25.691Z,11.47
2018-02-14T11:22:57.063Z,10.97
2018-02-14T11:25:27.002Z,10.43
2018-02-14T11:27:56.861Z,10.73
2018-02-14T11:30:26.713Z,10.17
2018-02-14T11:32:58.042Z,10.10
2018-02-14T11:35:29.592Z,11.07
2018-02-14T11:37:59.770Z,9.67
2018-02-14T11:40:30.548Z,11.57
2018-02-14T11:43:00.439Z,11.33
2018-02-14T11:45:30.418Z,10.57
2018-02-14T11:48:00.573Z,11.00
2018-02-14T11:50:31.189Z,11.63
2018-02-14T11:53:01.916Z,10.70
2018-02-14T11:55:32.045Z,10.73
2018-02-14T11:58:06.034Z,11.10
2018-02-14T12:00:36.135Z,11.80
2018-02-14T12:03:08.809Z,9.20
2018-02-14T12:18:04.342Z,12.00
2018-02-14T12:51:26.829Z,9.13
2018-02-14T12:53:56.953Z,9.70
2018-02-14T13:12:01.690Z,8.57
2018-02-14T13:14:31.754Z,9.67
2018-02-14T13:30:28.273Z,9.80
2018-02-14T13:45:54.311Z,9.80
2018-02-14T13:48:28.449Z,10.63
2018-02-14T13:50:58.402Z,11.50
2018-02-14T13:53:28.709Z,10.10
2018-02-14T13:55:58.802Z,12.63
2018-02-14T13:58:30.044Z,10.53
2018-02-14T14:01:01.621Z,12.50
2018-02-14T14:03:32.099Z,10.90
2018-02-14T14:06:01.934Z,10.03
2018-02-14T14:14:46.381Z,12.00
2018-02-14T14:17:16.351Z,11.40
2018-02-14T14:34:55.854Z,11.90
2018-02-14T14:37:26.159Z,13.83
2018-02-14T14:42:53.503Z,12.47
2018-02-14T14:45:24.814Z,13.37
2018-02-14T14:47:54.779Z,11.80
2018-02-14T14:50:24.986Z,11.43
2018-02-14T14:52:54.953Z,12.33
2018-02-14T14:55:25.173Z,12.57
2018-02-14T14:57:55.018Z,11.90
2018-02-14T15:00:26.024Z,12.17
2018-02-14T15:02:56.915Z,11.80
2018-02-14T15:05:33.071Z,11.20
2018-02-14T15:08:22.408Z,12.83
2018-02-14T15:10:52.758Z,12.03
2018-02-14T15:13:22.664Z,12.30
2018-02-14T15:15:53.154Z,12.80
2018-02-14T15:18:31.623Z,12.70
2018-02-14T15:21:03.532Z,12.43
2018-02-14T15:23:34.487Z,15.07
2018-02-14T15:26:04.842Z,13.33
2018-02-14T15:28:34.830Z,14.97
2018-02-14T15:31:06.133Z,15.00
2018-02-14T15:33:36.640Z,14.83
2018-02-14T15:36:07.152Z,13.20
2018-02-14T15:38:37.487Z,12.70
2018-02-14T15:41:07.945Z,13.60
2018-02-14T15:43:38.847Z,14.37
2018-02-14T15:46:09.303Z,13.63
2018-02-14T15:48:39.803Z,14.60
2018-02-14T15:51:10.209Z,13.80
2018-02-14T15:53:41.015Z,12.03
2018-02-14T15:56:12.506Z,14.77
2018-02-14T15:58:42.463Z,14.23
2018-02-14T16:01:13.924Z,13.63
2018-02-14T16:03:43.918Z,13.90
2018-02-14T16:06:15.035Z,12.77
2018-02-14T16:08:44.957Z,12.53
2018-02-14T16:11:15.121Z,12.80
2018-02-14T16:13:45.099Z,13.73
2018-02-14T16:16:15.346Z,12.47
2018-02-14T16:18:45.497Z,12.90
2018-02-14T16:21:15.676Z,12.90
2018-02-14T16:23:45.515Z,12.73
2018-02-14T16:26:15.737Z,13.67
2018-02-14T16:28:45.675Z,12.70
2018-02-14T16:31:15.842Z,13.90
2018-02-14T16:33:45.691Z,14.00
2018-02-14T16:36:15.968Z,14.50
2018-02-14T16:38:45.989Z,13.83
2018-02-14T16:41:16.298Z,12.67
2018-02-14T16:43:46.224Z,14.00
2018-02-14T16:46:16.400Z,14.53
2018-02-14T16:48:46.256Z,15.27
2018-02-14T16:51:16.189Z,15.57
2018-02-14T16:53:46.372Z,15.67
2018-02-14T16:56:16.218Z,16.13
2018-02-14T16:58:46.125Z,15.30
2018-02-14T17:01:16.308Z,15.57
2018-02-14T17:03:46.214Z,16.90
2018-02-14T17:06:16.141Z,15.47
2018-02-14T17:08:46.464Z,15.67
2018-02-14T17:11:16.634Z,16.43
2018-02-14T17:13:46.805Z,16.47
2018-02-14T17:16:16.915Z,16.03
2018-02-14T17:18:46.919Z,16.30
2018-02-14T17:21:16.842Z,16.50
2018-02-14T17:23:46.997Z,15.77
2018-02-14T17:26:16.961Z,15.50
2018-02-14T17:28:46.964Z,16.47
2018-02-14T17:31:16.853Z,15.30
2018-02-14T17:33:46.830Z,16.07
2018-02-14T17:36:16.719Z,14.50
2018-02-14T17:38:54.136Z,15.90
2018-02-14T17:41:24.158Z,16.00
2018-02-14T17:43:54.152Z,16.17
2018-02-14T17:46:24.026Z,16.17
2018-02-14T17:49:08.964Z,14.80
2018-02-14T17:51:38.833Z,15.40
2018-02-14T17:54:08.973Z,18.03
2018-02-14T17:56:39.883Z,17.27
2018-02-14T17:59:09.907Z,16.07
2018-02-14T18:01:39.769Z,16.80
2018-02-14T18:04:09.718Z,16.27
2018-02-14T18:06:39.701Z,15.97
2018-02-14T18:09:09.574Z,16.47
2018-02-14T18:11:39.426Z,16.73
2018-02-14T18:14:09.284Z,15.20
2018-02-14T18:16:39.138Z,17.30
2018-02-14T18:19:09.050Z,17.37
2018-02-14T18:21:38.921Z,15.03
2018-02-14T18:24:08.764Z,17.50
2018-02-14T18:26:38.654Z,16.83
2018-02-14T18:29:14.788Z,15.40
2018-02-14T18:31:44.684Z,17.17
2018-02-14T18:34:14.541Z,17.60
2018-02-14T18:36:44.483Z,16.63
2018-02-14T18:39:14.446Z,16.37
2018-02-14T18:41:44.368Z,17.37
2018-02-14T18:44:14.238Z,16.60
2018-02-14T18:46:44.116Z,15.10
2018-02-14T18:49:14.179Z,16.97
2018-02-14T18:51:44.156Z,17.67
2018-02-14T18:54:14.118Z,17.30
2018-02-14T18:56:44.056Z,16.50
2018-02-14T18:59:14.309Z,17.90
2018-02-14T19:01:44.479Z,16.80
2018-02-14T19:04:14.376Z,16.33
2018-02-14T19:06:44.211Z,18.80
2018-02-14T19:09:14.079Z,18.23
2018-02-14T19:11:43.996Z,16.33
2018-02-14T19:14:13.996Z,14.87
2018-02-14T19:16:43.886Z,16.20
2018-02-14T19:19:13.791Z,17.23
2018-02-14T19:21:43.755Z,16.80
2018-02-14T19:24:14.730Z,16.37
2018-02-14T19:26:44.771Z,15.30
2018-02-14T19:29:14.657Z,16.50
2018-02-14T19:31:44.535Z,15.83
2018-02-14T19:34:14.442Z,16.30
2018-02-14T19:36:44.308Z,17.10
2018-02-14T19:39:14.178Z,15.43
2018-02-14T19:41:44.092Z,17.40
2018-02-14T19:44:14.022Z,15.70
2018-02-14T19:46:43.958Z,16.93
2018-02-14T19:49:13.929Z,17.93
2018-02-14T19:51:43.830Z,17.17
2018-02-14T19:54:13.833Z,17.07
2018-02-14T19:56:43.744Z,17.00
2018-02-14T19:59:13.700Z,16.37
2018-02-14T20:01:43.654Z,16.03
2018-02-14T20:04:13.543Z,17.70
2018-02-14T20:06:43.455Z,16.70
2018-02-14T20:09:13.461Z,18.10
2018-02-14T20:11:43.439Z,19.40
2018-02-14T20:14:13.346Z,16.53
2018-02-14T20:16:43.246Z,17.40
2018-02-14T20:19:13.135Z,18.93
2018-02-14T20:21:43.192Z,18.77
2018-02-14T20:24:13.199Z,17.50
2018-02-14T20:26:43.119Z,17.07
2018-02-14T20:29:13.014Z,17.37
2018-02-14T20:31:42.943Z,16.87
2018-02-14T20:34:13.398Z,16.50
2018-02-14T20:36:43.486Z,19.20
2018-02-14T20:39:13.407Z,17.40
2018-02-14T20:41:43.364Z,16.90
2018-02-14T20:44:13.243Z,16.40
2018-02-14T20:46:43.335Z,14.17
2018-02-14T20:49:13.436Z,17.37
2018-02-14T20:51:43.554Z,18.53
2018-02-14T20:54:13.484Z,17.47
2018-02-14T20:56:44.394Z,17.57
2018-02-14T20:59:14.289Z,17.87
2018-02-14T21:01:44.240Z,21.50
2018-02-14T21:04:14.132Z,18.17
2018-02-14T21:06:44.041Z,18.80
2018-02-14T21:09:13.944Z,18.03
2018-02-14T21:11:44.558Z,18.20
2018-02-14T21:14:14.489Z,21.40
2018-02-14T21:16:44.458Z,18.37
2018-02-14T21:19:35.772Z,19.83
2018-02-14T21:22:06.550Z,18.33
2018-02-14T21:24:37.351Z,16.70
2018-02-14T21:27:15.623Z,20.77
2018-02-14T21:29:45.533Z,17.43
2018-02-14T21:32:15.783Z,17.17
2018-02-14T21:34:50.451Z,18.60
2018-02-14T21:37:30.493Z,18.53
2018-02-14T21:40:01.680Z,17.30
2018-02-14T21:42:31.778Z,17.40
2018-02-14T21:45:01.916Z,18.23
2018-02-14T21:47:31.934Z,18.63
2018-02-14T21:52:39.069Z,16.97
2018-02-14T21:55:10.455Z,18.77
2018-02-14T21:57:40.739Z,17.30
2018-02-14T22:00:10.755Z,18.83
2018-02-14T22:02:40.628Z,19.60
2018-02-14T22:05:10.780Z,17.87
2018-02-14T22:07:41.287Z,18.37
2018-02-14T22:10:13.679Z,17.80
2018-02-14T22:15:21.495Z,18.30
2018-02-14T22:17:51.646Z,18.13
2018-02-14T22:20:21.755Z,18.77
2018-02-14T22:22:52.649Z,16.20
2018-02-14T22:25:23.320Z,17.37
2018-02-14T22:27:53.494Z,16.10
2018-02-14T22:30:23.473Z,17.47
2018-02-14T22:32:53.780Z,18.67
2018-02-14T22:35:23.863Z,18.20
2018-02-14T22:37:53.752Z,18.53
2018-02-14T22:40:28.301Z,16.23
2018-02-14T22:45:44.231Z,18.30
2018-02-14T22:48:14.093Z,17.47
2018-02-14T22:50:44.882Z,17.77
2018-02-14T22:53:15.740Z,17.17
2018-02-14T22:55:45.841Z,20.17
2018-02-14T22:58:16.632Z,17.70
2018-02-14T23:00:46.533Z,18.30
2018-02-14T23:03:16.436Z,18.07
2018-02-14T23:05:46.540Z,18.07
2018-02-14T23:08:16.729Z,18.33
2018-02-14T23:10:47.076Z,19.33
2018-02-14T23:13:16.940Z,20.10
2018-02-14T23:15:47.003Z,18.00
2018-02-14T23:18:17.481Z,19.90
2018-02-14T23:20:47.342Z,19.70
2018-02-14T23:23:18.036Z,19.00
2018-02-14T23:25:47.896Z,17.43
2018-02-14T23:28:17.717Z,17.40
2018-02-14T23:30:47.613Z,17.50
2018-02-14T23:33:17.517Z,16.93
2018-02-14T23:35:47.369Z,18.70
2018-02-14T23:38:17.870Z,15.70
2018-02-14T23:40:47.763Z,18.07
2018-02-14T23:43:17.646Z,17.20
2018-02-14T23:45:47.574Z,16.80
2018-02-14T23:48:17.459Z,17.30
2018-02-14T23:50:47.676Z,17.10
2018-02-14T23:53:18.145Z,17.00
2018-02-14T23:55:48.041Z,16.93
2018-02-14T23:58:17.885Z,16.73
